createdAt,value
2018-10-02T00:00:23.195Z,101608.30
2018-10-02T00:02:52.861Z,101611.05
2018-10-02T00:05:22.769Z,101607.76
2018-10-02T00:07:52.737Z,101611.04
2018-10-02T00:10:22.471Z,101609.77
2018-10-02T00:12:57.420Z,101614.77
2018-10-02T00:15:27.232Z,101612.61
2018-10-02T00:17:56.854Z,101611.03
2018-10-02T00:20:26.648Z,101612.92
2018-10-02T00:22:56.332Z,101610.09
2018-10-02T00:25:26.021Z,101602.24
2018-10-02T00:27:55.640Z,101601.41
2018-10-02T00:30:25.338Z,101602.24
2018-10-02T00:32:55.103Z,101607.08
2018-10-02T00:35:24.817Z,101608.59
2018-10-02T00:37:54.559Z,101606.80
2018-10-02T00:40:24.333Z,101592.98
2018-10-02T00:42:54.009Z,101593.90
2018-10-02T00:45:23.756Z,101588.78
2018-10-02T00:47:53.430Z,101587.02
2018-10-02T00:50:23.234Z,101583.57
2018-10-02T00:52:53.228Z,101579.31
2018-10-02T00:55:23.017Z,101580.86
2018-10-02T00:57:52.733Z,101583.74
2018-10-02T01:00:22.356Z,101582.63
2018-10-02T01:02:52.104Z,101579.88
2018-10-02T01:05:21.948Z,101568.98
2018-10-02T01:07:51.661Z,101565.05
2018-10-02T01:10:21.320Z,101570.14
2018-10-02T01:12:51.111Z,101571.96
2018-10-02T01:15:20.801Z,101572.91
2018-10-02T01:17:50.505Z,101569.23
2018-10-02T01:20:20.205Z,101578.87
2018-10-02T01:22:50.001Z,101571.81
2018-10-02T01:25:19.652Z,101572.53
2018-10-02T01:27:49.361Z,101571.15
2018-10-02T01:30:19.048Z,101565.16
2018-10-02T01:32:48.696Z,101566.22
2018-10-02T01:35:18.361Z,101566.22
2018-10-02T01:37:48.005Z,101567.38
2018-10-02T01:40:17.684Z,101570.43
2018-10-02T01:42:47.542Z,101557.16
2018-10-02T01:45:17.488Z,101559.84
2018-10-02T01:47:47.172Z,101561.78
2018-10-02T01:50:17.000Z,101556.48
2018-10-02T01:52:47.120Z,101562.00
2018-10-02T01:55:16.974Z,101552.12
2018-10-02T01:57:46.740Z,101550.40
2018-10-02T02:00:16.410Z,101541.98
2018-10-02T02:02:46.120Z,101542.11
2018-10-02T02:05:15.815Z,101547.20
2018-10-02T02:07:45.450Z,101543.06
2018-10-02T02:10:15.286Z,101535.64
2018-10-02T02:12:45.004Z,101532.89
2018-10-02T02:15:14.720Z,101532.59
2018-10-02T02:17:44.434Z,101532.72
2018-10-02T02:20:14.106Z,101532.72
2018-10-02T02:22:43.812Z,101519.13
2018-10-02T02:25:13.506Z,101524.20
2018-10-02T02:27:43.306Z,101520.36
2018-10-02T02:30:13.204Z,101511.41
2018-10-02T02:32:42.901Z,101502.66
2018-10-02T02:35:12.693Z,101503.95
2018-10-02T02:37:42.328Z,101511.47
2018-10-02T02:40:12.193Z,101515.61
2018-10-02T02:42:41.843Z,101505.72
2018-10-02T02:45:11.509Z,101507.06
2018-10-02T02:47:46.536Z,101502.62
2018-10-02T02:50:21.447Z,101500.78
2018-10-02T02:52:54.405Z,101500.60
2018-10-02T02:55:24.137Z,101498.25
2018-10-02T02:57:54.018Z,101492.54
2018-10-02T03:00:23.753Z,101483.78
2018-10-02T03:02:53.476Z,101471.65
2018-10-02T03:05:23.427Z,101480.20
2018-10-02T03:07:53.198Z,101478.03
2018-10-02T03:10:23.189Z,101463.55
2018-10-02T03:12:52.970Z,101461.91
2018-10-02T03:15:22.824Z,101476.48
2018-10-02T03:17:52.473Z,101468.76
2018-10-02T03:20:22.342Z,101458.64
2018-10-02T03:22:52.043Z,101450.91
2018-10-02T03:25:21.674Z,101454.78
2018-10-02T03:27:51.410Z,101453.11
2018-10-02T03:30:21.082Z,101454.10
2018-10-02T03:32:50.806Z,101457.50
2018-10-02T03:35:20.457Z,101453.84
2018-10-02T03:37:50.151Z,101450.36
2018-10-02T03:40:19.768Z,101447.34
2018-10-02T03:42:49.443Z,101451.77
2018-10-02T03:45:19.160Z,101450.23
2018-10-02T03:47:48.812Z,101458.97
2018-10-02T03:50:18.533Z,101443.02
2018-10-02T03:52:48.149Z,101437.80
2018-10-02T03:55:17.838Z,101437.69
2018-10-02T03:57:47.593Z,101449.75
2018-10-02T04:00:17.310Z,101447.65
2018-10-02T04:02:47.061Z,101446.70
2018-10-02T04:05:16.920Z,101430.89
2018-10-02T04:07:46.804Z,101433.79
2018-10-02T04:10:16.468Z,101419.77
2018-10-02T04:12:46.168Z,101410.80
2018-10-02T04:15:15.937Z,101401.09
2018-10-02T04:17:45.596Z,101399.56
2018-10-02T04:20:15.356Z,101406.81
2018-10-02T04:22:45.163Z,101402.33
2018-10-02T04:25:14.835Z,101405.20
2018-10-02T04:27:44.512Z,101395.54
2018-10-02T04:30:14.172Z,101395.30
2018-10-02T04:32:44.914Z,101391.97
2018-10-02T04:35:14.578Z,101383.60
2018-10-02T04:37:44.238Z,101378.00
2018-10-02T04:40:14.015Z,101380.17
2018-10-02T04:42:43.651Z,101378.14
2018-10-02T04:45:13.443Z,101364.70
2018-10-02T04:47:43.247Z,101356.54
2018-10-02T04:50:12.897Z,101353.52
2018-10-02T04:52:42.520Z,101351.47
2018-10-02T04:55:12.237Z,101343.05
2018-10-02T04:57:41.868Z,101339.96
2018-10-02T05:00:11.622Z,101340.56
2018-10-02T05:02:41.361Z,101333.59
2018-10-02T05:05:11.165Z,101339.94
2018-10-02T05:07:40.786Z,101344.72
2018-10-02T05:10:11.037Z,101349.65
2018-10-02T05:12:40.819Z,101338.48
2018-10-02T05:15:10.461Z,101333.06
2018-10-02T05:17:40.206Z,101348.52
2018-10-02T05:20:09.934Z,101347.39
2018-10-02T05:22:39.603Z,101343.62
2018-10-02T05:25:09.539Z,101348.52
2018-10-02T05:27:39.301Z,101339.67
2018-10-02T05:30:09.087Z,101351.73
2018-10-02T05:32:38.891Z,101335.30
2018-10-02T05:35:08.691Z,101329.37
2018-10-02T05:37:38.293Z,101324.98
2018-10-02T05:40:08.177Z,101324.66
2018-10-02T05:42:37.834Z,101327.22
2018-10-02T05:45:08.641Z,101323.33
2018-10-02T05:47:38.410Z,101329.08
2018-10-02T05:50:08.653Z,101325.73
2018-10-02T05:52:38.513Z,101326.38
2018-10-02T05:55:08.189Z,101318.73
2018-10-02T05:57:38.864Z,101307.42
2018-10-02T06:00:09.294Z,101309.14
2018-10-02T06:02:39.027Z,101318.06
2018-10-02T06:05:08.957Z,101321.38
2018-10-02T06:07:38.649Z,101314.84
2018-10-02T06:10:09.827Z,101311.98
2018-10-02T06:12:39.585Z,101319.52
2018-10-02T06:15:09.331Z,101314.50
2018-10-02T06:17:39.036Z,101306.01
2018-10-02T06:20:08.891Z,101297.92
2018-10-02T06:22:38.661Z,101296.20
2018-10-02T06:25:08.464Z,101290.73
2018-10-02T06:27:38.138Z,101292.70
2018-10-02T06:30:08.002Z,101288.68
2018-10-02T06:32:37.715Z,101286.98
2018-10-02T06:35:07.465Z,101279.42
2018-10-02T06:37:37.225Z,101280.09
2018-10-02T06:40:06.945Z,101284.92
2018-10-02T06:42:36.968Z,101288.55
2018-10-02T06:45:07.434Z,101289.27
2018-10-02T06:47:37.174Z,101287.05
2018-10-02T06:50:07.076Z,101284.69
2018-10-02T06:52:37.172Z,101289.66
2018-10-02T06:55:07.878Z,101299.88
2018-10-02T06:57:37.928Z,101293.31
2018-10-02T07:00:08.104Z,101287.58
2018-10-02T07:02:37.951Z,101292.72
2018-10-02T07:05:07.689Z,101281.31
2018-10-02T07:07:37.579Z,101285.10
2018-10-02T07:10:08.503Z,101278.23
2018-10-02T07:12:38.382Z,101285.66
2018-10-02T07:15:08.258Z,101275.59
2018-10-02T07:17:38.089Z,101276.38
2018-10-02T07:20:07.974Z,101272.22
2018-10-02T07:22:38.637Z,101259.63
2018-10-02T07:25:08.609Z,101269.05
2018-10-02T07:27:38.501Z,101271.14
2018-10-02T07:30:08.182Z,101274.94
2018-10-02T07:32:37.921Z,101273.31
2018-10-02T07:35:07.658Z,101266.84
2018-10-02T07:37:37.411Z,101257.63
2018-10-02T07:40:07.108Z,101257.00
2018-10-02T07:42:36.865Z,101240.72
2018-10-02T07:45:06.856Z,101256.03
2018-10-02T07:47:36.650Z,101254.65
2018-10-02T07:50:06.479Z,101246.30
2018-10-02T07:52:36.657Z,101242.50
2018-10-02T07:55:06.577Z,101222.48
2018-10-02T07:57:36.326Z,101222.80
2018-10-02T08:00:06.852Z,101217.44
2018-10-02T08:02:36.624Z,101212.55
2018-10-02T08:05:06.765Z,101208.89
2018-10-02T08:07:36.414Z,101224.16
2018-10-02T08:10:06.213Z,101226.42
2018-10-02T08:12:35.965Z,101228.97
2018-10-02T08:15:05.922Z,101239.98
2018-10-02T08:17:35.789Z,101245.33
2018-10-02T08:20:05.748Z,101234.30
2018-10-02T08:22:35.425Z,101240.23
2018-10-02T08:25:05.468Z,101246.94
2018-10-02T08:27:35.275Z,101258.44
2018-10-02T08:30:05.235Z,101250.97
2018-10-02T08:32:34.903Z,101239.22
2018-10-02T08:35:04.807Z,101243.95
2018-10-02T08:37:34.630Z,101248.06
2018-10-02T08:40:04.584Z,101244.50
2018-10-02T08:42:34.305Z,101243.08
2018-10-02T08:45:04.147Z,101236.36
2018-10-02T08:47:34.077Z,101221.48
2018-10-02T08:50:03.960Z,101224.20
2018-10-02T08:52:33.781Z,101225.68
2018-10-02T08:55:03.575Z,101229.96
2018-10-02T08:57:33.316Z,101227.22
2018-10-02T09:00:03.122Z,101235.35
2018-10-02T09:02:32.891Z,101241.84
2018-10-02T09:05:02.651Z,101231.53
2018-10-02T09:07:32.509Z,101233.34
2018-10-02T09:10:02.479Z,101239.30
2018-10-02T09:12:32.187Z,101238.70
2018-10-02T09:15:01.963Z,101239.48
2018-10-02T09:17:31.743Z,101232.77
2018-10-02T09:20:01.555Z,101226.69
2018-10-02T09:22:31.329Z,101223.98
2018-10-02T09:25:01.121Z,101221.05
2018-10-02T09:27:30.698Z,101213.94
2018-10-02T09:30:05.421Z,101215.21
2018-10-02T09:32:40.160Z,101217.07
2018-10-02T09:35:15.052Z,101216.05
2018-10-02T09:38:47.935Z,101212.27
2018-10-02T09:41:22.721Z,101218.77
2018-10-02T09:43:55.227Z,101211.06
2018-10-02T09:46:25.666Z,101213.63
2018-10-02T09:48:55.543Z,101217.21
2018-10-02T09:51:25.375Z,101219.75
2018-10-02T09:53:55.070Z,101213.77
2018-10-02T09:56:24.857Z,101217.74
2018-10-02T09:58:54.547Z,101209.96
2018-10-02T10:01:29.409Z,101207.56
2018-10-02T10:03:59.146Z,101212.08
2018-10-02T10:06:28.980Z,101218.48
2018-10-02T10:08:58.626Z,101210.72
2018-10-02T10:11:28.359Z,101206.23
2018-10-02T10:13:58.091Z,101216.11
2018-10-02T10:16:27.872Z,101221.61
2018-10-02T10:18:57.585Z,101212.13
2018-10-02T10:21:27.339Z,101209.91
2018-10-02T10:23:57.010Z,101200.97
2018-10-02T10:26:26.858Z,101197.95
2018-10-02T10:28:56.662Z,101196.31
2018-10-02T10:31:26.294Z,101192.59
2018-10-02T10:33:56.078Z,101188.86
2018-10-02T10:36:25.901Z,101188.47
2018-10-02T10:38:55.609Z,101188.47
2018-10-02T10:41:25.491Z,101174.96
2018-10-02T10:43:55.254Z,101179.63
2018-10-02T10:46:25.160Z,101178.17
2018-10-02T10:48:54.869Z,101178.41
2018-10-02T10:51:24.654Z,101175.57
2018-10-02T10:53:54.443Z,101164.34
2018-10-02T10:56:24.220Z,101163.47
2018-10-02T10:58:53.935Z,101158.55
2018-10-02T11:01:23.757Z,101162.17
2018-10-02T11:03:53.650Z,101158.94
2018-10-02T11:06:23.556Z,101158.52
2018-10-02T11:08:53.346Z,101142.97
2018-10-02T11:11:23.033Z,101147.77
2018-10-02T11:13:52.957Z,101146.52
2018-10-02T11:16:22.612Z,101145.48
2018-10-02T11:18:52.392Z,101131.28
2018-10-02T11:21:22.123Z,101128.13
2018-10-02T11:23:52.001Z,101122.78
2018-10-02T11:26:21.667Z,101125.95
2018-10-02T11:28:51.442Z,101125.66
2018-10-02T11:31:21.443Z,101135.91
2018-10-02T11:33:51.102Z,101127.30
2018-10-02T11:36:20.831Z,101124.03
2018-10-02T11:38:50.593Z,101119.43
2018-10-02T11:41:20.296Z,101115.02
2018-10-02T11:43:50.346Z,101118.84
2018-10-02T11:46:19.894Z,101109.63
2018-10-02T11:48:49.715Z,101112.19
2018-10-02T11:51:19.467Z,101110.27
2018-10-02T11:53:49.192Z,101101.95
2018-10-02T11:56:18.848Z,101105.56
2018-10-02T11:58:48.520Z,101105.06
2018-10-02T12:01:18.325Z,101095.80
2018-10-02T12:03:47.974Z,101093.80
2018-10-02T12:06:17.705Z,101100.95
2018-10-02T12:08:47.520Z,101094.66
2018-10-02T12:11:17.205Z,101093.63
2018-10-02T12:13:46.986Z,101091.77
2018-10-02T12:16:16.727Z,101091.77
2018-10-02T12:18:46.436Z,101096.16
2018-10-02T12:21:16.264Z,101088.13
2018-10-02T12:23:45.980Z,101077.64
2018-10-02T12:26:15.755Z,101072.92
2018-10-02T12:28:45.448Z,101082.78
2018-10-02T12:31:15.367Z,101077.58
2018-10-02T12:33:45.247Z,101086.05
2018-10-02T12:36:14.925Z,101071.02
2018-10-02T12:38:44.737Z,101067.56
2018-10-02T12:41:14.348Z,101066.05
2018-10-02T12:43:44.106Z,101073.86
2018-10-02T12:46:13.954Z,101064.86
2018-10-02T12:48:43.665Z,101063.16
2018-10-02T12:51:13.620Z,101063.55
2018-10-02T12:53:43.312Z,101051.80
2018-10-02T12:56:12.972Z,101052.62
2018-10-02T12:58:42.747Z,101072.73
2018-10-02T13:01:12.444Z,101065.06
2018-10-02T13:03:42.186Z,101067.58
2018-10-02T13:06:11.957Z,101062.33
2018-10-02T13:08:41.735Z,101059.99
2018-10-02T13:11:11.482Z,101067.34
2018-10-02T13:13:41.146Z,101064.13
2018-10-02T13:16:11.114Z,101066.98
2018-10-02T13:18:41.215Z,101075.13
2018-10-02T13:21:11.010Z,101081.21
2018-10-02T13:23:40.741Z,101078.52
2018-10-02T13:26:10.569Z,101074.61
2018-10-02T13:28:40.390Z,101085.35
2018-10-02T13:31:10.142Z,101081.74
2018-10-02T13:33:39.861Z,101079.14
2018-10-02T13:36:09.665Z,101097.56
2018-10-02T13:38:46.114Z,101089.61
2018-10-02T13:41:15.770Z,101082.66
2018-10-02T13:43:45.469Z,101094.34
2018-10-02T13:46:15.238Z,101080.39
2018-10-02T13:48:45.002Z,101086.17
2018-10-02T13:51:14.795Z,101089.27
2018-10-02T13:53:44.727Z,101090.52
2018-10-02T13:56:14.411Z,101076.34
2018-10-02T13:58:44.371Z,101086.34
2018-10-02T14:01:14.120Z,101089.86
2018-10-02T14:03:43.806Z,101083.42
2018-10-02T14:06:13.757Z,101093.06
2018-10-02T14:08:43.472Z,101094.33
2018-10-02T14:11:13.148Z,101098.20
2018-10-02T14:13:42.862Z,101110.12
2018-10-02T14:16:12.623Z,101105.20
2018-10-02T14:18:44.731Z,101110.84
2018-10-02T14:21:14.414Z,101100.20
2018-10-02T14:23:44.297Z,101108.16
2018-10-02T14:26:13.995Z,101111.16
2018-10-02T14:28:43.913Z,101113.28
2018-10-02T14:31:13.689Z,101114.28
2018-10-02T14:33:43.442Z,101117.63
2018-10-02T14:36:13.158Z,101109.33
2018-10-02T14:38:42.994Z,101110.76
2018-10-02T14:41:12.932Z,101111.67
2018-10-02T14:43:42.820Z,101107.20
2018-10-02T14:46:12.550Z,101116.54
2018-10-02T14:48:42.362Z,101114.47
2018-10-02T14:51:21.704Z,101114.05
2018-10-02T14:53:51.879Z,101105.86
2018-10-02T14:56:21.764Z,101105.86
2018-10-02T14:58:52.531Z,101104.19
2018-10-02T15:01:22.543Z,101105.94
2018-10-02T15:03:54.076Z,101104.90
2018-10-02T15:06:24.869Z,101110.59
2018-10-02T15:09:04.023Z,101098.68
2018-10-02T15:14:28.071Z,101084.63
2018-10-02T15:16:57.793Z,101080.38
2018-10-02T15:19:27.508Z,101079.53
2018-10-02T15:21:57.231Z,101071.33
2018-10-02T15:24:27.036Z,101066.11
2018-10-02T15:26:56.805Z,101065.27
2018-10-02T15:29:26.509Z,101056.14
2018-10-02T15:31:56.329Z,101057.03
2018-10-02T15:34:26.305Z,101053.63
2018-10-02T15:36:56.143Z,101062.02
2018-10-02T15:39:25.966Z,101074.52
2018-10-02T15:41:55.806Z,101073.72
2018-10-02T15:44:25.530Z,101074.49
2018-10-02T15:46:55.223Z,101079.42
2018-10-02T15:49:25.044Z,101072.77
2018-10-02T15:51:54.862Z,101078.10
2018-10-02T15:54:24.557Z,101070.30
2018-10-02T15:56:54.317Z,101085.92
2018-10-02T15:59:24.011Z,101081.49
2018-10-02T16:01:54.099Z,101083.77
2018-10-02T16:04:23.861Z,101085.98
2018-10-02T16:06:53.707Z,101096.09
2018-10-02T16:09:23.398Z,101104.33
2018-10-02T16:11:53.183Z,101112.55
2018-10-02T16:14:22.846Z,101103.41
2018-10-02T16:16:52.513Z,101099.05
2018-10-02T16:19:22.219Z,101100.41
2018-10-02T16:21:51.922Z,101093.38
2018-10-02T16:24:21.695Z,101091.20
2018-10-02T16:26:51.501Z,101093.30
2018-10-02T16:29:21.337Z,101093.26
2018-10-02T16:31:51.052Z,101087.99
2018-10-02T16:34:20.862Z,101091.34
2018-10-02T16:36:50.515Z,101088.73
2018-10-02T16:39:20.301Z,101094.31
2018-10-02T16:41:50.013Z,101102.63
2018-10-02T16:44:19.758Z,101111.55
2018-10-02T16:46:49.535Z,101111.92
2018-10-02T16:49:19.257Z,101121.39
2018-10-02T16:51:51.856Z,101127.95
2018-10-02T16:54:21.677Z,101131.41
2018-10-02T16:56:51.395Z,101126.62
2018-10-02T16:59:21.102Z,101137.48
2018-10-02T17:01:50.814Z,101132.20
2018-10-02T17:04:20.585Z,101145.06
2018-10-02T17:06:50.434Z,101144.66
2018-10-02T17:09:20.145Z,101141.30
2018-10-02T17:11:49.864Z,101154.59
2018-10-02T17:14:19.618Z,101153.64
2018-10-02T17:16:49.536Z,101155.61
2018-10-02T17:19:19.303Z,101157.55
2018-10-02T17:21:49.104Z,101161.94
2018-10-02T17:24:18.811Z,101163.34
2018-10-02T17:26:48.550Z,101165.95
2018-10-02T17:29:18.262Z,101169.58
2018-10-02T17:31:47.953Z,101173.44
2018-10-02T17:34:17.618Z,101180.50
2018-10-02T17:36:47.306Z,101181.73
2018-10-02T17:39:17.013Z,101189.41
2018-10-02T17:41:46.814Z,101186.00
2018-10-02T17:44:16.493Z,101189.30
2018-10-02T17:46:46.209Z,101190.67
2018-10-02T17:49:15.966Z,101190.13
2018-10-02T17:51:45.785Z,101193.06
2018-10-02T17:54:15.502Z,101197.28
2018-10-02T17:56:45.377Z,101204.02
2018-10-02T17:59:15.214Z,101209.94
2018-10-02T18:01:45.035Z,101210.68
2018-10-02T18:04:14.908Z,101214.61
2018-10-02T18:06:44.910Z,101214.31
2018-10-02T18:09:14.642Z,101219.00
2018-10-02T18:11:44.361Z,101221.82
2018-10-02T18:14:14.111Z,101225.23
2018-10-02T18:16:43.879Z,101234.34
2018-10-02T18:19:13.735Z,101232.59
2018-10-02T18:21:43.445Z,101235.50
2018-10-02T18:24:13.194Z,101233.02
2018-10-02T18:26:43.030Z,101231.30
2018-10-02T18:29:12.849Z,101237.86
2018-10-02T18:31:42.637Z,101240.47
2018-10-02T18:34:12.530Z,101243.49
2018-10-02T18:36:42.322Z,101248.70
2018-10-02T18:39:12.230Z,101246.50
2018-10-02T18:41:41.980Z,101243.49
2018-10-02T18:44:11.717Z,101245.41
2018-10-02T18:46:41.437Z,101241.96
2018-10-02T18:49:11.311Z,101245.05
2018-10-02T18:51:41.044Z,101242.48
2018-10-02T18:54:10.771Z,101247.32
2018-10-02T18:56:40.729Z,101248.16
2018-10-02T18:59:10.353Z,101250.82
2018-10-02T19:01:40.108Z,101257.88
2018-10-02T19:04:09.837Z,101253.97
2018-10-02T19:06:39.648Z,101254.57
2018-10-02T19:09:13.122Z,101252.02
2018-10-02T19:11:48.083Z,101259.84
2018-10-02T19:14:18.829Z,101264.66
2018-10-02T19:16:48.703Z,101260.09
2018-10-02T19:19:23.683Z,101256.14
2018-10-02T19:21:53.628Z,101250.06
2018-10-02T19:24:23.490Z,101247.06
2018-10-02T19:26:53.342Z,101254.12
2018-10-02T19:29:23.234Z,101252.34
2018-10-02T19:31:58.095Z,101253.25
2018-10-02T19:34:27.905Z,101259.61
2018-10-02T19:36:57.779Z,101263.89
2018-10-02T19:39:29.362Z,101262.28
2018-10-02T19:42:00.107Z,101265.31
2018-10-02T19:44:29.855Z,101267.27
2018-10-02T19:47:01.257Z,101268.58
2018-10-02T19:49:32.422Z,101266.03
2018-10-02T19:52:06.210Z,101272.88
2018-10-02T19:54:35.972Z,101265.92
2018-10-02T19:57:06.495Z,101266.73
2018-10-02T19:59:36.206Z,101271.45
2018-10-02T20:02:06.019Z,101276.10
2018-10-02T20:04:36.101Z,101274.00
2018-10-02T20:07:06.003Z,101280.57
2018-10-02T20:09:35.681Z,101271.01
2018-10-02T20:12:05.364Z,101265.86
2018-10-02T20:14:35.116Z,101267.59
2018-10-02T20:17:04.926Z,101271.06
2018-10-02T20:19:34.656Z,101284.98
2018-10-02T20:22:04.472Z,101286.27
2018-10-02T20:24:34.426Z,101279.70
2018-10-02T20:27:04.360Z,101278.73
2018-10-02T20:29:34.050Z,101268.72
2018-10-02T20:32:04.050Z,101263.24
2018-10-02T20:34:33.826Z,101264.06
2018-10-02T20:37:03.536Z,101274.44
2018-10-02T20:39:33.440Z,101277.42
2018-10-02T20:42:03.197Z,101277.95
2018-10-02T20:44:32.965Z,101270.96
2018-10-02T20:47:02.717Z,101268.28
2018-10-02T20:49:32.605Z,101269.59
2018-10-02T20:52:02.378Z,101269.42
2018-10-02T20:54:32.158Z,101274.19
2018-10-02T20:57:02.051Z,101283.32
2018-10-02T20:59:32.039Z,101279.29
2018-10-02T21:02:01.773Z,101286.73
2018-10-02T21:04:31.606Z,101282.76
2018-10-02T21:07:01.416Z,101284.73
2018-10-02T21:09:31.165Z,101284.98
2018-10-02T21:12:00.920Z,101287.44
2018-10-02T21:14:30.740Z,101287.02
2018-10-02T21:17:00.476Z,101285.36
2018-10-02T21:19:30.223Z,101291.19
2018-10-02T21:22:00.026Z,101281.34
2018-10-02T21:24:29.926Z,101278.78
2018-10-02T21:26:59.589Z,101273.45
2018-10-02T21:29:29.506Z,101269.44
2018-10-02T21:31:59.321Z,101264.52
2018-10-02T21:34:29.123Z,101267.05
2018-10-02T21:36:58.807Z,101270.47
2018-10-02T21:39:28.511Z,101276.48
2018-10-02T21:41:58.334Z,101287.20
2018-10-02T21:44:28.080Z,101291.02
2018-10-02T21:46:58.161Z,101288.82
2018-10-02T21:49:27.978Z,101284.50
2018-10-02T21:51:57.767Z,101274.14
2018-10-02T21:54:27.590Z,101275.62
2018-10-02T21:56:57.646Z,101282.27
2018-10-02T21:59:27.473Z,101290.16
2018-10-02T22:01:57.272Z,101299.19
2018-10-02T22:04:27.019Z,101288.32
2018-10-02T22:06:56.746Z,101281.75
2018-10-02T22:09:26.641Z,101285.92
2018-10-02T22:11:56.532Z,101282.76
2018-10-02T22:14:26.292Z,101279.59
2018-10-02T22:16:55.961Z,101272.21
2018-10-02T22:19:25.896Z,101276.63
2018-10-02T22:21:55.881Z,101274.52
2018-10-02T22:24:25.642Z,101270.78
2018-10-02T22:26:55.429Z,101269.31
2018-10-02T22:29:25.109Z,101275.00
2018-10-02T22:31:54.922Z,101279.34
2018-10-02T22:34:24.641Z,101275.01
2018-10-02T22:36:54.413Z,101274.15
2018-10-02T22:39:24.271Z,101270.73
2018-10-02T22:41:53.989Z,101262.52
2018-10-02T22:44:23.711Z,101264.77
2018-10-02T22:46:53.425Z,101258.73
2018-10-02T22:49:23.184Z,101264.39
2018-10-02T22:51:52.998Z,101265.74
2018-10-02T22:54:22.760Z,101270.41
2018-10-02T22:56:52.445Z,101266.19
2018-10-02T22:59:22.195Z,101256.24
2018-10-02T23:01:51.884Z,101249.36
2018-10-02T23:04:21.577Z,101252.55
2018-10-02T23:06:51.278Z,101253.85
2018-10-02T23:09:21.015Z,101258.63
2018-10-02T23:11:50.722Z,101258.14
2018-10-02T23:14:20.389Z,101270.63
2018-10-02T23:16:50.201Z,101275.37
2018-10-02T23:19:19.930Z,101265.32
2018-10-02T23:21:50.163Z,101265.00
2018-10-02T23:24:19.929Z,101255.21
2018-10-02T23:26:49.597Z,101258.13
2018-10-02T23:29:19.265Z,101266.19
2018-10-02T23:31:49.081Z,101272.41
2018-10-02T23:34:18.913Z,101269.30
2018-10-02T23:36:48.634Z,101272.08
2018-10-02T23:39:18.471Z,101268.54
2018-10-02T23:41:48.170Z,101275.23
2018-10-02T23:44:17.901Z,101272.76
2018-10-02T23:46:47.709Z,101271.39
2018-10-02T23:49:17.425Z,101281.55
2018-10-02T23:51:47.117Z,101272.80
2018-10-02T23:54:16.888Z,101272.86
2018-10-02T23:56:46.628Z,101272.22
2018-10-02T23:59:16.977Z,101281.49
